Port Lions, Alaska
Current Conditions -  °F | °C
As of 4:53 PM on Tuesday 21 Oct 2014 (Local Time) from PADQ Reporting Station
Few Clouds Few Clouds  
Wind Chill: 36°   Ceiling: Unl
Heat Index: 42°   Visibility: 10mi
Dew Point: 27°   Wind: 12mph
Humidity: 55%   Direction: 290°WNW
Pressure: 29.23"   Gusts: NA
Location:  57.87°N, 152.88°W
Report Text: PADQ 220053Z 29010KT 10SM FEW030 06/M03 A2923 RMK AO2 SLP897 T00561028
Loading
Personal Weather Stations






























Interactive Weather Map
Tropical Storm Tracking
New forecast layout! Learn more

10-Day Weather Forecast

Advertisements
Track Severe Weather on mobile